createdAt,value
2023-01-28T00:01:14.698Z,0.03
2023-01-28T00:02:54.542Z,0.03
2023-01-28T00:04:34.263Z,0.03
2023-01-28T00:06:14.092Z,0.03
2023-01-28T00:07:53.765Z,0.03
2023-01-28T00:09:33.520Z,0.03
2023-01-28T00:11:13.328Z,0.03
2023-01-28T00:12:53.059Z,0.03
2023-01-28T00:14:32.796Z,0.03
2023-01-28T00:16:12.561Z,0.03
2023-01-28T00:17:52.319Z,0.03
2023-01-28T00:19:32.077Z,0.03
2023-01-28T00:21:11.886Z,0.03
2023-01-28T00:22:51.604Z,0.03
2023-01-28T00:24:31.461Z,0.03
2023-01-28T00:26:11.144Z,0.03
2023-01-28T00:27:50.904Z,0.03
2023-01-28T00:29:30.756Z,0.03
2023-01-28T00:31:10.455Z,0.03
2023-01-28T00:32:50.319Z,0.03
2023-01-28T00:34:29.953Z,0.03
2023-01-28T00:36:09.859Z,0.03
2023-01-28T00:37:49.498Z,0.03
2023-01-28T00:39:29.356Z,0.03
2023-01-28T00:41:09.020Z,0.03
2023-01-28T00:42:48.842Z,0.03
2023-01-28T00:44:28.541Z,0.03
2023-01-28T00:46:08.453Z,0.03
2023-01-28T00:47:48.123Z,0.03
2023-01-28T00:49:27.831Z,0.03
2023-01-28T00:51:07.591Z,0.03
2023-01-28T00:52:47.357Z,0.03
2023-01-28T00:54:27.143Z,0.03
2023-01-28T00:56:06.890Z,0.03
2023-01-28T00:57:46.770Z,0.03
2023-01-28T00:59:26.465Z,0.03
2023-01-28T01:01:06.211Z,0.03
2023-01-28T01:02:45.946Z,0.03
2023-01-28T01:04:25.773Z,0.03
2023-01-28T01:06:05.474Z,0.03
2023-01-28T01:07:45.236Z,0.03
2023-01-28T01:09:25.022Z,0.03
2023-01-28T01:11:04.805Z,0.03
2023-01-28T01:12:44.551Z,0.03
2023-01-28T01:14:24.293Z,0.03
2023-01-28T01:16:04.195Z,0.03
2023-01-28T01:17:43.861Z,0.03
2023-01-28T01:19:23.611Z,0.03
2023-01-28T01:21:03.350Z,0.04
2023-01-28T01:22:43.110Z,0.04
2023-01-28T01:24:22.871Z,0.05
2023-01-28T01:26:02.675Z,0.06
2023-01-28T01:27:42.396Z,0.08
2023-01-28T01:29:22.168Z,0.15
2023-01-28T01:31:01.933Z,0.2
2023-01-28T01:32:41.763Z,0.16
2023-01-28T01:34:21.606Z,0.19
2023-01-28T01:36:01.293Z,0.22
2023-01-28T01:37:41.044Z,0.22
2023-01-28T01:39:20.902Z,0.31
2023-01-28T01:41:00.543Z,0.35
2023-01-28T01:42:40.366Z,0.39
2023-01-28T01:44:20.075Z,0.34
2023-01-28T01:45:59.829Z,0.4
2023-01-28T01:47:39.599Z,0.47
2023-01-28T01:49:19.418Z,0.58
2023-01-28T01:50:59.088Z,0.68
2023-01-28T01:52:38.861Z,0.87
2023-01-28T01:54:18.717Z,0.97
2023-01-28T01:55:58.379Z,1.01
2023-01-28T01:57:38.221Z,1.15
2023-01-28T01:59:17.953Z,1.04
2023-01-28T02:00:57.669Z,1.03
2023-01-28T02:02:37.439Z,1.16
2023-01-28T02:04:17.206Z,1.08
2023-01-28T02:05:57.004Z,1.27
2023-01-28T02:07:36.732Z,0.88
2023-01-28T02:09:16.501Z,1.04
2023-01-28T02:10:56.246Z,1.25
2023-01-28T02:12:36.018Z,1.04
2023-01-28T02:14:15.805Z,1.02
2023-01-28T02:15:55.684Z,1.17
2023-01-28T02:17:35.330Z,1.19
2023-01-28T02:19:15.075Z,1.15
2023-01-28T02:20:54.842Z,1.22
2023-01-28T02:22:34.598Z,1.04
2023-01-28T02:24:14.369Z,1.09
2023-01-28T02:25:54.144Z,1.16
2023-01-28T02:27:33.990Z,1.07
2023-01-28T02:29:14.165Z,0.98
2023-01-28T02:30:53.570Z,0.85
2023-01-28T02:32:33.252Z,0.95
2023-01-28T02:34:12.953Z,0.94
2023-01-28T02:35:52.798Z,0.8
2023-01-28T02:37:32.469Z,0.61
2023-01-28T02:39:12.331Z,0.47
2023-01-28T02:40:52.005Z,0.45
2023-01-28T02:42:31.775Z,0.43
2023-01-28T02:44:11.529Z,0.44
2023-01-28T02:45:51.388Z,0.37
2023-01-28T02:47:31.183Z,0.38
2023-01-28T02:49:10.826Z,0.36
2023-01-28T02:50:50.643Z,0.38
2023-01-28T02:52:30.345Z,0.46
2023-01-28T02:54:10.121Z,0.41
2023-01-28T02:55:49.884Z,0.36
2023-01-28T02:57:29.650Z,0.35
2023-01-28T02:59:09.399Z,0.34
2023-01-28T03:00:49.159Z,0.37
2023-01-28T03:02:28.946Z,0.33
2023-01-28T03:04:08.744Z,0.33
2023-01-28T03:05:48.605Z,0.33
2023-01-28T03:07:28.252Z,0.31
2023-01-28T03:09:07.976Z,0.34
2023-01-28T03:10:47.774Z,0.33
2023-01-28T03:12:27.512Z,0.33
2023-01-28T03:14:07.308Z,0.32
2023-01-28T03:15:47.106Z,0.32
2023-01-28T03:17:26.824Z,0.31
2023-01-28T03:19:06.600Z,0.31
2023-01-28T03:20:46.382Z,0.28
2023-01-28T03:22:26.108Z,0.29
2023-01-28T03:24:05.929Z,0.27
2023-01-28T03:25:45.728Z,0.25
2023-01-28T03:27:25.457Z,0.26
2023-01-28T03:29:05.171Z,0.27
2023-01-28T03:30:44.919Z,0.27
2023-01-28T03:32:24.688Z,0.28
2023-01-28T03:34:04.566Z,0.3
2023-01-28T03:35:44.219Z,0.28
2023-01-28T03:37:24.088Z,0.29
2023-01-28T03:39:03.765Z,0.3
2023-01-28T03:40:43.494Z,0.29
2023-01-28T03:42:23.328Z,0.29
2023-01-28T03:44:03.073Z,0.28
2023-01-28T03:45:42.886Z,0.29
2023-01-28T03:47:22.576Z,0.27
2023-01-28T03:49:02.413Z,0.26
2023-01-28T03:50:42.092Z,0.26
2023-01-28T03:52:21.856Z,0.23
2023-01-28T03:54:01.610Z,0.23
2023-01-28T03:55:41.375Z,0.24
2023-01-28T03:57:21.154Z,0.24
2023-01-28T03:59:00.952Z,0.24
2023-01-28T04:00:40.714Z,0.25
2023-01-28T04:02:20.433Z,0.26
2023-01-28T04:04:00.229Z,0.26
2023-01-28T04:05:40.001Z,0.27
2023-01-28T04:07:19.756Z,0.27
2023-01-28T04:08:59.487Z,0.28
2023-01-28T04:10:39.244Z,0.29
2023-01-28T04:12:19.061Z,0.28
2023-01-28T04:13:58.792Z,0.28
2023-01-28T04:15:38.688Z,0.3
2023-01-28T04:17:18.432Z,0.29
2023-01-28T04:18:58.081Z,0.3
2023-01-28T04:20:37.848Z,0.3
2023-01-28T04:22:17.586Z,0.3
2023-01-28T04:23:57.375Z,0.3
2023-01-28T04:25:37.172Z,0.3
2023-01-28T04:27:16.901Z,0.3
2023-01-28T04:28:56.654Z,0.29
2023-01-28T04:30:36.412Z,0.3
2023-01-28T04:32:16.191Z,0.28
2023-01-28T04:33:55.944Z,0.29
2023-01-28T04:35:35.792Z,0.28
2023-01-28T04:37:15.468Z,0.3
2023-01-28T04:38:55.242Z,0.3
2023-01-28T04:40:35.056Z,0.29
2023-01-28T04:42:14.780Z,0.29
2023-01-28T04:43:54.526Z,0.29
2023-01-28T04:45:34.366Z,0.28
2023-01-28T04:47:14.108Z,0.27
2023-01-28T04:48:53.979Z,0.27
2023-01-28T04:50:33.600Z,0.27
2023-01-28T04:52:13.359Z,0.28
2023-01-28T04:53:53.115Z,0.27
2023-01-28T04:55:32.898Z,0.28
2023-01-28T04:57:12.632Z,0.28
2023-01-28T04:58:52.398Z,0.28
2023-01-28T05:00:32.265Z,0.28
2023-01-28T05:02:11.968Z,0.27
2023-01-28T05:03:51.725Z,0.26
2023-01-28T05:05:31.471Z,0.27
2023-01-28T05:07:11.370Z,0.25
2023-01-28T05:08:51.063Z,0.26
2023-01-28T05:10:30.770Z,0.27
2023-01-28T05:12:10.582Z,0.25
2023-01-28T05:13:50.302Z,0.25
2023-01-28T05:15:30.130Z,0.26
2023-01-28T05:17:09.903Z,0.26
2023-01-28T05:18:49.575Z,0.26
2023-01-28T05:20:29.340Z,0.26
2023-01-28T05:22:09.136Z,0.26
2023-01-28T05:23:49.014Z,0.27
2023-01-28T05:25:28.627Z,0.27
2023-01-28T05:27:08.446Z,0.26
2023-01-28T05:28:48.302Z,0.27
2023-01-28T05:30:28.018Z,0.27
2023-01-28T05:32:07.854Z,0.26
2023-01-28T05:33:47.438Z,0.27
2023-01-28T05:35:27.290Z,0.27
2023-01-28T05:37:07.027Z,0.27
2023-01-28T05:38:46.754Z,0.27
2023-01-28T05:40:26.549Z,0.27
2023-01-28T05:42:06.290Z,0.28
2023-01-28T05:43:46.049Z,0.28
2023-01-28T05:45:25.786Z,0.28
2023-01-28T05:47:05.555Z,0.29
2023-01-28T05:48:45.322Z,0.31
2023-01-28T05:50:25.077Z,0.31
2023-01-28T05:52:04.831Z,0.33
2023-01-28T05:53:44.630Z,0.33
2023-01-28T05:55:24.372Z,0.35
2023-01-28T05:57:04.153Z,0.38
2023-01-28T05:58:43.915Z,0.42
2023-01-28T06:00:23.718Z,0.45
2023-01-28T06:02:03.428Z,0.49
2023-01-28T06:03:43.209Z,0.55
2023-01-28T06:05:22.977Z,0.62
2023-01-28T06:07:02.776Z,0.73
2023-01-28T06:08:42.484Z,0.85
2023-01-28T06:10:22.332Z,1.04
2023-01-28T06:12:02.020Z,1.25
2023-01-28T06:13:41.985Z,1.54
2023-01-28T06:15:21.577Z,1.92
2023-01-28T06:17:01.325Z,2.46
2023-01-28T06:18:41.055Z,3.11
2023-01-28T06:20:20.832Z,4
2023-01-28T06:22:00.646Z,5.42
2023-01-28T06:23:40.369Z,7.33
2023-01-28T06:25:20.130Z,9.6
2023-01-28T06:26:59.893Z,12.09
2023-01-28T06:28:39.673Z,12.24
2023-01-28T06:30:19.410Z,12.28
2023-01-28T06:31:59.234Z,12.29
2023-01-28T06:33:38.982Z,12.3
2023-01-28T06:35:18.703Z,12.31
2023-01-28T06:36:58.463Z,12.33
2023-01-28T06:38:38.276Z,12.34
2023-01-28T06:40:18.007Z,12.35
2023-01-28T06:41:57.868Z,12.35
2023-01-28T06:43:37.554Z,12.36
2023-01-28T06:45:17.374Z,12.38
2023-01-28T06:46:57.062Z,12.38
2023-01-28T06:48:36.840Z,12.39
2023-01-28T06:50:16.567Z,12.4
2023-01-28T06:51:56.332Z,12.41
2023-01-28T06:53:36.215Z,12.42
2023-01-28T06:55:15.968Z,12.42
2023-01-28T06:56:55.638Z,12.42
2023-01-28T06:58:35.448Z,12.42
2023-01-28T07:00:15.415Z,12.44
2023-01-28T07:01:54.932Z,12.44
2023-01-28T07:03:34.728Z,12.45
2023-01-28T07:05:14.566Z,12.46
2023-01-28T07:06:54.225Z,12.47
2023-01-28T07:08:34.023Z,12.47
2023-01-28T07:10:13.904Z,12.49
2023-01-28T07:11:53.509Z,12.5
2023-01-28T07:13:33.285Z,12.5
2023-01-28T07:15:13.070Z,12.52
2023-01-28T07:16:52.801Z,12.57
2023-01-28T07:18:32.595Z,12.58
2023-01-28T07:20:12.323Z,12.62
2023-01-28T07:21:52.092Z,18.29
2023-01-28T07:23:31.874Z,20.45
2023-01-28T07:25:11.749Z,21.24
2023-01-28T07:26:51.375Z,22.31
2023-01-28T07:28:31.151Z,16.06
2023-01-28T07:30:11.050Z,16.51
2023-01-28T07:31:50.664Z,13.62
2023-01-28T07:33:30.502Z,13.64
2023-01-28T07:35:10.212Z,13.65
2023-01-28T07:36:50.103Z,13.62
2023-01-28T07:38:29.785Z,13.69
2023-01-28T07:40:09.641Z,13.7
2023-01-28T07:41:49.373Z,13.72
2023-01-28T07:45:08.794Z,13.74
2023-01-28T07:46:48.546Z,13.73
2023-01-28T07:48:28.327Z,13.74
2023-01-28T07:50:08.213Z,13.78
2023-01-28T07:51:47.861Z,13.79
2023-01-28T07:53:27.617Z,13.8
2023-01-28T07:55:07.455Z,13.81
2023-01-28T07:56:47.139Z,13.81
2023-01-28T07:58:26.955Z,13.85
2023-01-28T08:00:06.851Z,13.82
2023-01-28T08:01:46.418Z,13.84
2023-01-28T08:03:26.185Z,13.83
2023-01-28T08:05:05.942Z,13.88
2023-01-28T08:06:45.798Z,13.88
2023-01-28T08:08:25.597Z,13.89
2023-01-28T08:10:05.338Z,13.9
2023-01-28T08:11:44.989Z,13.94
2023-01-28T08:13:24.919Z,13.95
2023-01-28T08:15:04.543Z,13.95
2023-01-28T08:16:44.335Z,13.97
2023-01-28T08:18:24.068Z,14
2023-01-28T08:20:03.868Z,14
2023-01-28T08:21:43.698Z,14
2023-01-28T08:23:23.422Z,14.05
2023-01-28T08:25:03.243Z,14.04
2023-01-28T08:26:42.873Z,14.08
2023-01-28T08:28:22.680Z,14.1
2023-01-28T08:30:02.418Z,21.7
2023-01-28T08:31:42.264Z,14.56
2023-01-28T08:33:21.965Z,14.22
2023-01-28T08:35:01.714Z,14.19
2023-01-28T08:36:41.568Z,14.23
2023-01-28T08:38:21.239Z,14.25
2023-01-28T08:40:01.056Z,14.25
2023-01-28T08:41:40.844Z,14.25
2023-01-28T08:43:20.651Z,14.24
2023-01-28T08:45:00.345Z,14.23
2023-01-28T08:46:40.058Z,14.22
2023-01-28T08:48:19.908Z,14.24
2023-01-28T08:49:59.594Z,14.25
2023-01-28T08:51:39.357Z,14.28
2023-01-28T08:53:19.154Z,14.26
2023-01-28T08:54:58.868Z,14.27
2023-01-28T08:56:38.636Z,14.3
2023-01-28T08:58:18.387Z,14.29
2023-01-28T08:59:58.144Z,14.3
2023-01-28T09:01:37.943Z,14.3
2023-01-28T09:03:17.739Z,14.32
2023-01-28T09:04:57.447Z,14.31
2023-01-28T09:06:37.302Z,14.32
2023-01-28T09:08:16.963Z,14.32
2023-01-28T09:09:56.749Z,14.36
2023-01-28T09:11:36.550Z,14.35
2023-01-28T09:13:16.385Z,14.4
2023-01-28T09:14:56.034Z,14.39
2023-01-28T09:16:35.880Z,14.39
2023-01-28T09:18:15.654Z,14.42
2023-01-28T09:19:55.327Z,14.44
2023-01-28T09:21:35.158Z,14.48
2023-01-28T09:23:14.915Z,14.46
2023-01-28T09:24:54.701Z,14.48
2023-01-28T09:26:34.386Z,14.5
2023-01-28T09:28:14.278Z,14.49
2023-01-28T09:29:53.911Z,14.5
2023-01-28T09:31:33.683Z,18.24
2023-01-28T09:33:13.545Z,14.55
2023-01-28T09:34:53.208Z,14.52
2023-01-28T09:36:33.015Z,14.52
2023-01-28T09:38:12.758Z,14.56
2023-01-28T09:39:52.564Z,14.58
2023-01-28T09:41:32.460Z,14.59
2023-01-28T09:43:12.074Z,14.63
2023-01-28T09:44:51.869Z,14.64
2023-01-28T09:46:31.719Z,14.67
2023-01-28T09:48:11.397Z,14.7
2023-01-28T09:49:51.290Z,14.7
2023-01-28T09:51:31.079Z,14.7
2023-01-28T09:53:10.825Z,14.74
2023-01-28T09:54:50.602Z,14.73
2023-01-28T09:56:30.353Z,14.72
2023-01-28T09:58:10.142Z,14.73
2023-01-28T09:59:49.962Z,14.71
2023-01-28T10:01:29.799Z,14.71
2023-01-28T10:03:09.425Z,14.71
2023-01-28T10:04:49.209Z,14.74
2023-01-28T10:06:28.950Z,14.72
2023-01-28T10:08:08.826Z,14.75
2023-01-28T10:09:48.534Z,14.75
2023-01-28T10:11:28.353Z,14.74
2023-01-28T10:13:08.029Z,14.73
2023-01-28T10:14:47.802Z,14.71
2023-01-28T10:16:27.562Z,14.67
2023-01-28T10:18:07.316Z,14.66
2023-01-28T10:19:47.093Z,14.65
2023-01-28T10:21:27.068Z,14.64
2023-01-28T10:23:06.703Z,14.65
2023-01-28T10:24:46.396Z,14.63
2023-01-28T10:26:26.290Z,14.63
2023-01-28T10:28:06.015Z,14.62
2023-01-28T10:29:45.759Z,14.65
2023-01-28T10:31:25.474Z,22.72
2023-01-28T10:33:05.272Z,14.69
2023-01-28T10:34:45.008Z,14.66
2023-01-28T10:36:24.790Z,14.59
2023-01-28T10:38:04.604Z,14.6
2023-01-28T10:39:44.333Z,14.6
2023-01-28T10:41:24.054Z,14.6
2023-01-28T10:43:03.836Z,14.61
2023-01-28T10:44:43.584Z,14.64
2023-01-28T10:46:23.374Z,14.65
2023-01-28T10:48:03.133Z,14.66
2023-01-28T10:49:42.897Z,14.7
2023-01-28T10:51:22.705Z,14.67
2023-01-28T10:53:02.446Z,14.66
2023-01-28T10:54:42.322Z,14.66
2023-01-28T10:56:21.969Z,14.64
2023-01-28T10:58:01.796Z,14.65
2023-01-28T10:59:41.561Z,14.65
2023-01-28T11:01:21.261Z,14.66
2023-01-28T11:03:01.113Z,14.69
2023-01-28T11:04:40.873Z,14.7
2023-01-28T11:06:20.587Z,14.71
2023-01-28T11:08:00.347Z,14.68
2023-01-28T11:09:40.178Z,14.68
2023-01-28T11:11:19.885Z,14.65
2023-01-28T11:12:59.685Z,14.67
2023-01-28T11:14:39.539Z,14.66
2023-01-28T11:16:19.325Z,14.64
2023-01-28T11:17:59.178Z,14.64
2023-01-28T11:19:38.836Z,14.66
2023-01-28T11:21:18.597Z,14.7
2023-01-28T11:22:58.419Z,14.73
2023-01-28T11:24:38.180Z,14.73
2023-01-28T11:26:18.062Z,14.76
2023-01-28T11:27:57.717Z,14.74
2023-01-28T11:29:37.452Z,14.75
2023-01-28T11:31:17.251Z,30.5
2023-01-28T11:32:56.901Z,14.81
2023-01-28T11:34:36.738Z,14.78
2023-01-28T11:36:16.603Z,14.78
2023-01-28T11:37:56.126Z,14.74
2023-01-28T11:39:36.074Z,14.74
2023-01-28T11:41:15.817Z,14.72
2023-01-28T11:42:55.496Z,14.71
2023-01-28T11:44:35.200Z,14.72
2023-01-28T11:46:14.957Z,14.75
2023-01-28T11:47:54.718Z,14.73
2023-01-28T11:49:34.585Z,14.76
2023-01-28T11:51:14.413Z,14.73
2023-01-28T11:52:54.083Z,14.76
2023-01-28T11:54:33.797Z,14.74
2023-01-28T11:56:13.552Z,14.71
2023-01-28T11:57:53.314Z,14.74
2023-01-28T11:59:33.092Z,14.72
2023-01-28T12:01:12.862Z,14.73
2023-01-28T12:02:52.609Z,14.73
2023-01-28T12:04:32.402Z,14.72
2023-01-28T12:06:12.161Z,14.72
2023-01-28T12:07:51.953Z,14.69
2023-01-28T12:09:31.722Z,14.66
2023-01-28T12:11:11.470Z,14.65
2023-01-28T12:12:51.225Z,14.67
2023-01-28T12:14:31.009Z,14.64
2023-01-28T12:16:10.768Z,14.62
2023-01-28T12:17:50.542Z,14.62
2023-01-28T12:19:30.302Z,14.61
2023-01-28T12:21:10.094Z,14.64
2023-01-28T12:22:49.856Z,14.59
2023-01-28T12:24:29.590Z,14.59
2023-01-28T12:26:09.358Z,14.6
2023-01-28T12:27:49.110Z,14.56
2023-01-28T12:29:28.891Z,14.56
2023-01-28T12:31:08.653Z,44.03
2023-01-28T12:32:48.411Z,14.53
2023-01-28T12:34:28.166Z,14.51
2023-01-28T12:36:07.926Z,14.5
2023-01-28T12:37:47.688Z,14.47
2023-01-28T12:39:27.450Z,14.47
2023-01-28T12:41:07.224Z,14.48
2023-01-28T12:42:46.977Z,14.46
2023-01-28T12:44:26.763Z,14.45
2023-01-28T12:46:06.517Z,14.45
2023-01-28T12:47:46.272Z,14.43
2023-01-28T12:49:26.039Z,14.43
2023-01-28T12:51:05.816Z,14.46
2023-01-28T12:52:45.572Z,14.45
2023-01-28T12:54:25.321Z,14.46
2023-01-28T12:56:05.120Z,14.48
2023-01-28T12:57:44.861Z,14.49
2023-01-28T12:59:24.626Z,14.51
2023-01-28T13:01:04.386Z,14.55
2023-01-28T13:02:44.168Z,14.54
2023-01-28T13:04:23.938Z,14.57
2023-01-28T13:06:03.683Z,14.56
2023-01-28T13:07:43.441Z,14.52
2023-01-28T13:09:23.215Z,14.51
2023-01-28T13:11:02.970Z,14.5
2023-01-28T13:12:42.761Z,14.5
2023-01-28T13:14:22.513Z,14.5
2023-01-28T13:16:02.275Z,14.51
2023-01-28T13:17:42.040Z,14.5
2023-01-28T13:19:21.803Z,14.51
2023-01-28T13:21:01.576Z,14.49
2023-01-28T13:22:41.329Z,14.5
2023-01-28T13:24:21.092Z,14.5
2023-01-28T13:26:00.838Z,14.51
2023-01-28T13:27:40.614Z,14.51
2023-01-28T13:29:20.387Z,14.54
2023-01-28T13:31:00.148Z,14.51
2023-01-28T13:32:39.891Z,17.59
2023-01-28T13:34:19.756Z,14.52
2023-01-28T13:35:59.431Z,14.52
2023-01-28T13:39:18.956Z,14.43
2023-01-28T13:40:58.754Z,14.49
2023-01-28T13:42:38.497Z,14.49
2023-01-28T13:44:18.257Z,14.49
2023-01-28T13:45:58.009Z,14.49
2023-01-28T13:47:37.796Z,14.55
2023-01-28T13:49:17.571Z,14.52
2023-01-28T13:50:57.302Z,14.5
2023-01-28T13:52:37.135Z,14.52
2023-01-28T13:54:16.847Z,14.52
2023-01-28T13:55:56.630Z,14.53
2023-01-28T13:57:36.361Z,14.52
2023-01-28T13:59:16.126Z,14.54
2023-01-28T14:00:55.895Z,14.55
2023-01-28T14:02:35.836Z,14.53
2023-01-28T14:04:15.670Z,14.48
2023-01-28T14:05:55.234Z,14.45
2023-01-28T14:07:35.148Z,14.51
2023-01-28T14:09:14.881Z,14.57
2023-01-28T14:10:54.603Z,14.59
2023-01-28T14:12:34.375Z,14.66
2023-01-28T14:14:14.112Z,14.67
2023-01-28T14:15:53.948Z,14.67
2023-01-28T14:17:33.714Z,14.71
2023-01-28T14:19:13.513Z,14.64
2023-01-28T14:20:53.215Z,14.52
2023-01-28T14:22:33.002Z,14.48
2023-01-28T14:24:12.770Z,14.42
2023-01-28T14:25:52.461Z,14.45
2023-01-28T14:27:32.279Z,14.54
2023-01-28T14:29:11.948Z,14.55
2023-01-28T14:30:51.820Z,14.6
2023-01-28T14:32:31.644Z,20.49
2023-01-28T14:34:11.176Z,14.65
2023-01-28T14:35:50.958Z,14.65
2023-01-28T14:37:30.808Z,14.64
2023-01-28T14:39:10.635Z,14.61
2023-01-28T14:40:50.363Z,14.56
2023-01-28T14:42:30.159Z,14.52
2023-01-28T14:44:09.948Z,14.51
2023-01-28T14:45:49.696Z,14.45
2023-01-28T14:47:29.394Z,14.45
2023-01-28T14:49:09.170Z,14.43
2023-01-28T14:50:48.840Z,14.39
2023-01-28T14:52:28.620Z,14.34
2023-01-28T14:54:08.512Z,14.31
2023-01-28T14:55:48.154Z,14.31
2023-01-28T14:57:27.950Z,14.29
2023-01-28T14:59:07.765Z,14.31
2023-01-28T15:00:47.589Z,14.26
2023-01-28T15:02:27.306Z,14.23
2023-01-28T15:04:07.117Z,14.23
2023-01-28T15:05:46.861Z,14.21
2023-01-28T15:07:26.470Z,14.13
2023-01-28T15:09:06.246Z,16.98
2023-01-28T15:10:46.095Z,15.52
2023-01-28T15:12:25.758Z,14.13
2023-01-28T15:14:05.616Z,14.06
2023-01-28T15:15:45.423Z,17.46
2023-01-28T15:17:25.115Z,14.85
2023-01-28T15:19:04.837Z,15.39
2023-01-28T15:20:44.664Z,19.2
2023-01-28T15:22:24.420Z,13.53
2023-01-28T15:24:04.176Z,12.96
2023-01-28T15:25:43.882Z,12.94
2023-01-28T15:27:23.619Z,12.93
2023-01-28T15:29:03.496Z,12.9
2023-01-28T15:30:43.303Z,12.91
2023-01-28T15:32:23.075Z,12.9
2023-01-28T15:34:02.830Z,12.88
2023-01-28T15:35:42.458Z,12.88
2023-01-28T15:37:22.223Z,12.87
2023-01-28T15:39:02.064Z,12.86
2023-01-28T15:40:41.771Z,12.85
2023-01-28T15:42:21.535Z,12.83
2023-01-28T15:44:01.331Z,12.82
2023-01-28T15:45:41.044Z,12.81
2023-01-28T15:47:20.799Z,12.82
2023-01-28T15:49:00.558Z,12.8
2023-01-28T15:50:40.324Z,12.81
2023-01-28T15:52:20.167Z,12.81
2023-01-28T15:54:00.000Z,12.8
2023-01-28T15:55:39.607Z,12.8
2023-01-28T15:57:19.382Z,12.77
2023-01-28T15:58:59.137Z,12.79
2023-01-28T16:00:38.955Z,12.77
2023-01-28T16:02:18.691Z,12.78
2023-01-28T16:03:58.424Z,12.78
2023-01-28T16:05:38.251Z,12.74
2023-01-28T16:07:17.977Z,12.73
2023-01-28T16:08:57.809Z,12.72
2023-01-28T16:10:37.494Z,12.69
2023-01-28T16:12:17.334Z,12.67
2023-01-28T16:13:57.010Z,12.64
2023-01-28T16:15:36.879Z,12.63
2023-01-28T16:17:16.569Z,12.56
2023-01-28T16:18:56.312Z,11.19
2023-01-28T16:20:36.194Z,9.16
2023-01-28T16:22:15.825Z,7.08
2023-01-28T16:23:55.739Z,5.5
2023-01-28T16:25:35.414Z,4.34
2023-01-28T16:27:15.106Z,3.49
2023-01-28T16:28:54.916Z,2.74
2023-01-28T16:30:34.680Z,2.13
2023-01-28T16:32:14.483Z,1.71
2023-01-28T16:33:54.180Z,1.32
2023-01-28T16:35:34.105Z,1.13
2023-01-28T16:37:13.852Z,0.91
2023-01-28T16:38:53.646Z,0.77
2023-01-28T16:40:33.412Z,0.65
2023-01-28T16:42:13.102Z,0.57
2023-01-28T16:43:52.916Z,0.52
2023-01-28T16:45:32.552Z,0.48
2023-01-28T16:47:12.530Z,0.44
2023-01-28T16:48:52.213Z,0.4
2023-01-28T16:50:32.007Z,0.39
2023-01-28T16:52:11.754Z,0.37
2023-01-28T16:53:51.556Z,0.34
2023-01-28T16:55:31.235Z,0.32
2023-01-28T16:57:11.025Z,0.31
2023-01-28T16:58:50.823Z,0.32
2023-01-28T17:00:30.440Z,0.32
2023-01-28T17:02:10.344Z,0.32
2023-01-28T17:03:50.093Z,0.31
2023-01-28T17:05:29.910Z,0.31
2023-01-28T17:07:09.693Z,0.3
2023-01-28T17:08:49.377Z,0.31
2023-01-28T17:10:29.191Z,0.31
2023-01-28T17:12:08.913Z,0.32
2023-01-28T17:13:48.619Z,0.32
2023-01-28T17:15:28.269Z,0.32
2023-01-28T17:17:08.240Z,0.32
2023-01-28T17:18:47.925Z,0.31
2023-01-28T17:20:27.719Z,0.31
2023-01-28T17:22:07.497Z,0.33
2023-01-28T17:23:47.104Z,0.34
2023-01-28T17:25:26.968Z,0.33
2023-01-28T17:27:06.620Z,0.33
2023-01-28T17:28:46.587Z,0.31
2023-01-28T17:30:26.294Z,0.32
2023-01-28T17:32:06.077Z,0.33
2023-01-28T17:33:45.677Z,0.34
2023-01-28T17:35:25.692Z,0.34
2023-01-28T17:37:05.388Z,0.34
2023-01-28T17:38:45.035Z,0.34
2023-01-28T17:40:24.917Z,0.33
2023-01-28T17:42:04.745Z,0.34
2023-01-28T17:43:44.465Z,0.34
2023-01-28T17:45:24.023Z,0.35
2023-01-28T17:47:03.978Z,0.32
2023-01-28T17:48:43.705Z,0.34
2023-01-28T17:50:23.503Z,0.33
2023-01-28T17:52:03.197Z,0.32
2023-01-28T17:53:43.029Z,0.32
2023-01-28T17:55:22.616Z,0.32
2023-01-28T17:57:02.546Z,0.32
2023-01-28T17:58:42.359Z,0.3
2023-01-28T18:00:22.119Z,0.3
2023-01-28T18:02:01.839Z,0.3
2023-01-28T18:03:41.581Z,0.28
2023-01-28T18:05:21.405Z,0.25
2023-01-28T18:07:01.133Z,0.23
2023-01-28T18:08:40.850Z,0.25
2023-01-28T18:10:20.683Z,0.26
2023-01-28T18:12:00.458Z,0.26
2023-01-28T18:13:40.185Z,0.26
2023-01-28T18:15:19.839Z,0.26
2023-01-28T18:16:59.703Z,0.25
2023-01-28T18:18:39.469Z,0.24
2023-01-28T18:20:19.308Z,0.26
2023-01-28T18:21:59.042Z,0.23
2023-01-28T18:23:38.741Z,0.23
2023-01-28T18:25:18.508Z,0.24
2023-01-28T18:26:58.298Z,0.23
2023-01-28T18:28:37.889Z,0.23
2023-01-28T18:30:17.674Z,0.22
2023-01-28T18:31:57.541Z,0.16
2023-01-28T18:33:37.315Z,0.18
2023-01-28T18:35:17.003Z,0.15
2023-01-28T18:38:36.471Z,0.15
2023-01-28T18:40:16.332Z,0.15
2023-01-28T18:41:56.137Z,0.13
2023-01-28T18:43:35.756Z,0.17
2023-01-28T18:45:15.657Z,0.11
2023-01-28T18:46:55.370Z,0.12
2023-01-28T18:48:35.150Z,0.14
2023-01-28T18:50:14.883Z,0.13
2023-01-28T18:51:54.629Z,0.15
2023-01-28T18:53:34.406Z,0.12
2023-01-28T18:55:14.112Z,0.12
2023-01-28T18:56:53.913Z,0.17
2023-01-28T18:58:33.628Z,0.16
2023-01-28T19:00:13.406Z,0.17
2023-01-28T19:01:53.215Z,0.14
2023-01-28T19:03:32.955Z,0.16
2023-01-28T19:05:12.703Z,0.19
2023-01-28T19:06:52.521Z,0.18
2023-01-28T19:08:32.284Z,0.18
2023-01-28T19:10:12.000Z,0.18
2023-01-28T19:11:51.765Z,0.16
2023-01-28T19:13:31.515Z,0.15
2023-01-28T19:15:11.374Z,0.18
2023-01-28T19:16:51.084Z,0.17
2023-01-28T19:18:30.803Z,0.14
2023-01-28T19:20:10.572Z,0.18
2023-01-28T19:21:50.406Z,0.14
2023-01-28T19:23:30.160Z,0.14
2023-01-28T19:25:09.839Z,0.14
2023-01-28T19:26:49.749Z,0.12
2023-01-28T19:28:29.391Z,0.15
2023-01-28T19:30:09.136Z,0.16
2023-01-28T19:31:48.917Z,0.12
2023-01-28T19:33:28.670Z,0.12
2023-01-28T19:35:08.569Z,0.14
2023-01-28T19:36:48.299Z,0.13
2023-01-28T19:38:28.028Z,0.13
2023-01-28T19:40:07.740Z,0.13
2023-01-28T19:41:47.642Z,0.14
2023-01-28T19:43:27.255Z,0.14
2023-01-28T19:45:07.121Z,0.12
2023-01-28T19:46:46.868Z,0.12
2023-01-28T19:48:26.557Z,0.14
2023-01-28T19:50:06.306Z,0.13
2023-01-28T19:51:46.082Z,0.15
2023-01-28T19:53:25.844Z,0.12
2023-01-28T19:55:05.609Z,0.12
2023-01-28T19:56:45.424Z,0.12
2023-01-28T19:58:25.134Z,0.13
2023-01-28T20:00:04.892Z,0.14
2023-01-28T20:01:44.676Z,0.14
2023-01-28T20:03:24.419Z,0.15
2023-01-28T20:05:04.211Z,0.15
2023-01-28T20:06:44.036Z,0.15
2023-01-28T20:08:23.737Z,0.16
2023-01-28T20:10:03.504Z,0.16
2023-01-28T20:11:43.251Z,0.16
2023-01-28T20:13:23.080Z,0.17
2023-01-28T20:15:02.769Z,0.17
2023-01-28T20:16:42.636Z,0.17
2023-01-28T20:18:22.361Z,0.17
2023-01-28T20:20:02.058Z,0.17
2023-01-28T20:21:41.837Z,0.16
2023-01-28T20:23:21.583Z,0.15
2023-01-28T20:25:01.442Z,0.13
2023-01-28T20:26:41.187Z,0.1
2023-01-28T20:28:20.888Z,0.1
2023-01-28T20:30:00.649Z,0.09
2023-01-28T20:31:40.487Z,0.12
2023-01-28T20:33:20.191Z,0.1
2023-01-28T20:35:00.032Z,0.1
2023-01-28T20:38:19.620Z,0.1
2023-01-28T20:39:59.318Z,0.1
2023-01-28T20:41:39.060Z,0.1
2023-01-28T20:43:18.847Z,0.1
2023-01-28T20:44:58.539Z,0.1
2023-01-28T20:46:38.341Z,0.1
2023-01-28T20:48:18.053Z,0.09
2023-01-28T20:49:57.809Z,0.1
2023-01-28T20:51:37.599Z,0.1
2023-01-28T20:53:17.339Z,0.11
2023-01-28T20:54:57.261Z,0.11
2023-01-28T20:56:36.911Z,0.12
2023-01-28T20:58:16.619Z,0.09
2023-01-28T20:59:56.386Z,0.09
2023-01-28T21:01:36.360Z,0.09
2023-01-28T21:03:16.084Z,0.12
2023-01-28T21:04:55.688Z,0.14
2023-01-28T21:06:35.464Z,0.12
2023-01-28T21:08:15.228Z,0.12
2023-01-28T21:09:54.983Z,0.12
2023-01-28T21:11:34.734Z,0.12
2023-01-28T21:13:14.521Z,0.12
2023-01-28T21:14:54.248Z,0.12
2023-01-28T21:18:13.786Z,0.11
2023-01-28T21:19:53.634Z,0.13
2023-01-28T21:21:33.465Z,0.1
2023-01-28T21:23:13.105Z,0.11
2023-01-28T21:24:52.860Z,0.11
2023-01-28T21:26:32.626Z,0.09
2023-01-28T21:28:12.371Z,0.08
2023-01-28T21:29:52.135Z,0.08
2023-01-28T21:31:31.902Z,0.07
2023-01-28T21:33:11.656Z,0.07
2023-01-28T21:34:51.441Z,0.08
2023-01-28T21:36:31.305Z,0.07
2023-01-28T21:38:10.976Z,0.07
2023-01-28T21:39:50.755Z,0.08
2023-01-28T21:41:30.581Z,0.07
2023-01-28T21:43:10.254Z,0.07
2023-01-28T21:44:50.110Z,0.07
2023-01-28T21:46:29.844Z,0.07
2023-01-28T21:48:09.538Z,0.07
2023-01-28T21:51:29.168Z,0.07
2023-01-28T21:53:08.852Z,0.07
2023-01-28T21:54:48.632Z,0.06
2023-01-28T21:56:28.360Z,0.06
2023-01-28T21:58:08.121Z,0.07
2023-01-28T21:59:47.944Z,0.07
2023-01-28T22:01:27.668Z,0.06
2023-01-28T22:03:07.510Z,0.06